Time;durP1;ratioP1;P1;durP2;ratioP2;P2;SDS_P1;SDS_P2;PMS_P1;PMS_P2;Temp;Humidity;BMP_temperature;BMP_pressure;BME280_temperature;BME280_humidity;BME280_pressure;Samples;Min_cycle;Max_cycle;Signal;HPM_P1;HPM_P2
2021/10/23 00:01:13;;;;;;;4.18;1.98;;;7.60;85.60;;;;;;5042513;28;20039;-81
2021/10/23 00:03:39;;;;;;;4.00;1.75;;;7.60;85.60;;;;;;5044775;28;20040;-82
2021/10/23 00:06:04;;;;;;;3.03;1.40;;;7.70;85.60;;;;;;5046075;28;20021;-82
2021/10/23 00:08:30;;;;;;;3.20;1.58;;;7.70;85.60;;;;;;5040960;28;20029;-81
2021/10/23 00:10:55;;;;;;;3.92;1.70;;;7.70;85.50;;;;;;5049831;28;20446;-81
2021/10/23 00:13:21;;;;;;;3.42;1.60;;;7.80;85.50;;;;;;5052486;28;20035;-82
2021/10/23 00:15:48;;;;;;;3.13;1.90;;;7.80;85.50;;;;;;5050417;28;20033;-81
2021/10/23 00:18:13;;;;;;;3.35;1.63;;;7.90;85.40;;;;;;5050807;28;20080;-82
2021/10/23 00:20:39;;;;;;;3.47;2.00;;;7.90;85.40;;;;;;5051437;28;20041;-82
2021/10/23 00:23:04;;;;;;;4.82;1.90;;;7.90;85.30;;;;;;5052392;28;20427;-82
2021/10/23 00:25:30;;;;;;;4.60;1.85;;;8.00;85.40;;;;;;5052860;28;20154;-81
2021/10/23 00:27:55;;;;;;;4.50;2.00;;;8.00;85.30;;;;;;5051796;28;20040;-81
2021/10/23 00:30:24;;;;;;;4.63;2.15;;;8.10;85.40;;;;;;5052438;28;20064;-81
2021/10/23 00:32:50;;;;;;;4.53;2.50;;;8.10;85.30;;;;;;5052547;28;20151;-81
2021/10/23 00:35:16;;;;;;;8.05;2.80;;;8.10;85.30;;;;;;5057276;28;20437;-81
2021/10/23 00:37:42;;;;;;;5.82;2.65;;;8.20;85.30;;;;;;5051688;28;20112;-80
2021/10/23 00:40:08;;;;;;;5.82;2.80;;;8.20;85.30;;;;;;5050894;28;20159;-80
2021/10/23 00:42:34;;;;;;;3.83;2.25;;;8.20;85.30;;;;;;5051281;28;20021;-80
2021/10/23 00:45:00;;;;;;;3.63;2.00;;;8.20;85.30;;;;;;5052069;28;20021;-80
2021/10/23 00:47:26;;;;;;;5.25;2.70;;;8.20;85.30;;;;;;5051888;28;20035;-80
2021/10/23 00:49:53;;;;;;;5.78;2.40;;;8.20;85.40;;;;;;5050969;28;20033;-80
2021/10/23 00:52:20;;;;;;;4.90;2.00;;;8.20;85.40;;;;;;5050818;28;20467;-80
2021/10/23 00:54:46;;;;;;;3.55;1.70;;;8.20;85.40;;;;;;5049891;28;20024;-79
2021/10/23 00:57:12;;;;;;;4.72;1.90;;;8.20;85.40;;;;;;5050920;28;20036;-80
2021/10/23 00:59:38;;;;;;;4.07;1.88;;;8.20;85.40;;;;;;5051802;28;20025;-80
2021/10/23 01:02:04;;;;;;;3.83;1.90;;;8.30;85.40;;;;;;5050431;28;20031;-80
2021/10/23 01:04:30;;;;;;;3.85;1.70;;;8.30;85.40;;;;;;5051732;28;20495;-80
2021/10/23 01:06:56;;;;;;;4.35;2.15;;;8.20;85.30;;;;;;5049976;28;20029;-80
2021/10/23 01:09:22;;;;;;;3.80;1.60;;;8.20;85.30;;;;;;5051524;28;20090;-80
2021/10/23 01:11:48;;;;;;;4.25;1.80;;;8.20;85.40;;;;;;5051104;28;20483;-79
2021/10/23 01:14:16;;;;;;;4.63;1.77;;;8.20;85.40;;;;;;5051584;28;20017;-80
2021/10/23 01:16:42;;;;;;;6.07;2.28;;;8.20;85.40;;;;;;5051406;28;20040;-79
2021/10/23 01:19:09;;;;;;;3.97;1.70;;;8.10;85.30;;;;;;5050864;28;20472;-80
2021/10/23 01:21:35;;;;;;;4.47;1.90;;;8.10;85.40;;;;;;5051513;28;20108;-80
2021/10/23 01:24:02;;;;;;;4.13;1.80;;;8.10;85.50;;;;;;5050939;28;20055;-79
2021/10/23 01:26:27;;;;;;;3.13;1.90;;;8.10;85.40;;;;;;5050216;28;20025;-80
2021/10/23 01:28:53;;;;;;;2.83;1.65;;;8.10;85.50;;;;;;5049972;28;20033;-80
2021/10/23 01:31:19;;;;;;;4.47;2.20;;;8.00;85.50;;;;;;5050733;28;20384;-81
2021/10/23 01:33:45;;;;;;;3.65;2.00;;;8.00;85.60;;;;;;5051187;28;20041;-80
2021/10/23 01:36:15;;;;;;;3.13;1.60;;;7.90;85.60;;;;;;5048471;28;20085;-80
2021/10/23 01:38:40;;;;;;;4.38;2.05;;;7.90;85.60;;;;;;5049296;28;20028;-80
2021/10/23 01:41:07;;;;;;;4.55;2.03;;;7.90;85.70;;;;;;5048110;28;20391;-80
2021/10/23 01:43:34;;;;;;;2.88;1.98;;;7.80;85.70;;;;;;5050866;28;20040;-80
2021/10/23 01:46:00;;;;;;;2.80;1.77;;;7.80;85.70;;;;;;5050786;28;20025;-80
2021/10/23 01:48:26;;;;;;;3.20;2.05;;;7.80;85.70;;;;;;5050807;28;20036;-80
2021/10/23 01:50:51;;;;;;;6.43;2.60;;;7.70;85.70;;;;;;5047833;28;20025;-80
2021/10/23 01:53:17;;;;;;;3.88;2.13;;;7.70;85.80;;;;;;5050817;28;20028;-79
2021/10/23 01:55:42;;;;;;;3.72;2.33;;;7.70;85.80;;;;;;5045802;28;20030;-79
2021/10/23 01:58:09;;;;;;;4.18;2.60;;;7.60;85.80;;;;;;5045033;28;20021;-79
2021/10/23 02:00:35;;;;;;;4.20;2.10;;;7.60;85.80;;;;;;5051132;28;20502;-79
2021/10/23 02:03:00;;;;;;;4.70;2.45;;;7.60;85.80;;;;;;5049389;28;20025;-79
2021/10/23 02:05:26;;;;;;;6.38;2.50;;;7.50;85.80;;;;;;5050499;28;20017;-79
2021/10/23 02:07:52;;;;;;;5.55;2.00;;;7.50;85.90;;;;;;5050407;28;20029;-79
2021/10/23 02:10:17;;;;;;;4.35;2.30;;;7.60;86.00;;;;;;5050395;28;20025;-79
2021/10/23 02:12:43;;;;;;;6.07;2.60;;;7.50;85.90;;;;;;5050186;28;20029;-79
2021/10/23 02:15:09;;;;;;;4.93;2.20;;;7.60;86.00;;;;;;5048090;28;20104;-80
2021/10/23 02:17:35;;;;;;;3.35;2.05;;;7.50;85.90;;;;;;5044553;28;20033;-79
2021/10/23 02:20:03;;;;;;;5.25;2.50;;;7.60;86.00;;;;;;5047944;28;20422;-81
2021/10/23 02:22:28;;;;;;;6.15;2.30;;;7.60;86.00;;;;;;5050641;28;20395;-79
2021/10/23 02:24:54;;;;;;;4.07;2.20;;;7.60;86.00;;;;;;5049197;28;20029;-79
2021/10/23 02:27:19;;;;;;;4.30;2.47;;;7.60;86.10;;;;;;5048453;28;20033;-80
2021/10/23 02:29:45;;;;;;;4.20;2.30;;;7.60;86.10;;;;;;5049099;28;20033;-81
2021/10/23 02:32:10;;;;;;;4.10;2.08;;;7.60;86.00;;;;;;5047224;28;20029;-79
2021/10/23 02:34:36;;;;;;;5.50;2.58;;;7.60;86.00;;;;;;5049744;28;20029;-79
2021/10/23 02:37:01;;;;;;;5.88;2.60;;;7.60;86.00;;;;;;5047779;28;20040;-79
2021/10/23 02:39:27;;;;;;;5.03;2.05;;;7.60;85.90;;;;;;5049128;28;20043;-79
2021/10/23 02:41:52;;;;;;;3.33;2.00;;;7.60;85.80;;;;;;5049221;28;20033;-79
2021/10/23 02:44:18;;;;;;;3.38;2.40;;;7.60;85.60;;;;;;5047390;28;20472;-79
2021/10/23 02:46:43;;;;;;;3.80;2.17;;;7.60;85.60;;;;;;5049017;28;20029;-80
2021/10/23 02:49:09;;;;;;;2.72;2.05;;;7.70;85.70;;;;;;5048353;28;20104;-80
2021/10/23 02:51:35;;;;;;;4.70;1.90;;;7.70;85.70;;;;;;5047144;28;20112;-79
2021/10/23 02:54:01;;;;;;;5.50;2.20;;;7.70;85.70;;;;;;5048949;28;20017;-80
2021/10/23 02:56:26;;;;;;;5.20;2.65;;;7.80;85.70;;;;;;5048669;28;20044;-79
2021/10/23 02:58:52;;;;;;;5.20;2.78;;;7.80;85.70;;;;;;5046067;28;20028;-80
2021/10/23 03:01:18;;;;;;;5.30;2.15;;;7.80;85.60;;;;;;5043995;28;20128;-79
2021/10/23 03:03:43;;;;;;;6.13;2.63;;;7.80;85.50;;;;;;5047757;28;20739;-79
2021/10/23 03:06:09;;;;;;;5.20;2.25;;;7.80;85.50;;;;;;5047322;28;20037;-80
2021/10/23 03:08:35;;;;;;;4.70;2.30;;;7.80;85.50;;;;;;5048100;28;20036;-80
2021/10/23 03:11:00;;;;;;;3.42;2.35;;;7.90;85.50;;;;;;5049163;28;20040;-79
2021/10/23 03:13:26;;;;;;;5.07;2.20;;;7.90;85.50;;;;;;5049464;28;20108;-79
2021/10/23 03:15:53;;;;;;;6.00;2.60;;;7.90;85.40;;;;;;5052581;28;20056;-78
2021/10/23 03:18:20;;;;;;;5.13;2.40;;;7.90;85.40;;;;;;5049000;28;20033;-79
2021/10/23 03:20:45;;;;;;;3.95;2.25;;;8.00;85.50;;;;;;5051248;28;20032;-80
2021/10/23 03:23:16;;;;;;;5.13;2.38;;;8.00;85.50;;;;;;5053158;28;20510;-80
2021/10/23 03:25:45;;;;;;;4.50;2.40;;;8.00;85.40;;;;;;5058447;28;20076;-80
2021/10/23 03:28:11;;;;;;;3.03;2.10;;;8.00;85.30;;;;;;5051737;28;20554;-79
2021/10/23 03:30:36;;;;;;;5.30;2.92;;;8.00;85.30;;;;;;5047800;28;20502;-80
2021/10/23 03:33:02;;;;;;;3.67;2.40;;;8.00;85.40;;;;;;5053629;28;20025;-79
2021/10/23 03:35:28;;;;;;;6.25;2.50;;;8.00;85.40;;;;;;5047747;28;20026;-79
2021/10/23 03:37:53;;;;;;;4.00;2.60;;;8.00;85.40;;;;;;5048095;28;20029;-79
2021/10/23 03:40:19;;;;;;;2.85;1.88;;;8.00;85.40;;;;;;5046148;28;20112;-79
2021/10/23 03:42:44;;;;;;;3.47;2.10;;;8.00;85.40;;;;;;5046674;28;20027;-82
2021/10/23 03:45:10;;;;;;;3.40;2.20;;;8.00;85.40;;;;;;5050365;28;20171;-80
2021/10/23 03:47:35;;;;;;;6.22;3.22;;;7.90;85.40;;;;;;5051896;28;20036;-80
2021/10/23 03:50:03;;;;;;;3.15;2.20;;;7.90;85.50;;;;;;5051064;28;20489;-80
2021/10/23 03:52:29;;;;;;;3.42;2.25;;;7.90;85.60;;;;;;5050775;28;20035;-80
2021/10/23 03:54:55;;;;;;;4.07;2.40;;;7.90;85.60;;;;;;5051278;28;20025;-80
2021/10/23 03:57:20;;;;;;;3.60;2.50;;;7.80;86.30;;;;;;5051534;28;20065;-80
2021/10/23 03:59:46;;;;;;;4.63;3.08;;;7.80;85.70;;;;;;5051117;28;20024;-80
2021/10/23 04:02:11;;;;;;;5.47;2.63;;;7.80;85.80;;;;;;5043031;28;20025;-79
2021/10/23 04:04:37;;;;;;;4.43;2.53;;;7.80;85.90;;;;;;5052391;28;20021;-80
2021/10/23 04:07:03;;;;;;;3.97;2.45;;;7.80;86.00;;;;;;5050971;28;20059;-80
2021/10/23 04:09:29;;;;;;;4.72;2.75;;;7.80;86.00;;;;;;5051369;28;20013;-81
2021/10/23 04:11:54;;;;;;;4.30;2.85;;;7.80;86.10;;;;;;5051744;28;20625;-81
2021/10/23 04:14:20;;;;;;;3.78;2.60;;;7.80;86.10;;;;;;5050832;28;20112;-81
2021/10/23 04:16:46;;;;;;;5.50;3.03;;;7.70;86.10;;;;;;5050225;28;20075;-80
2021/10/23 04:19:11;;;;;;;5.47;3.30;;;7.70;86.20;;;;;;5044934;28;20021;-81
2021/10/23 04:21:37;;;;;;;3.17;2.50;;;7.70;86.30;;;;;;5050949;28;20688;-81
2021/10/23 04:24:02;;;;;;;4.60;3.03;;;7.70;86.30;;;;;;5049572;28;20112;-81
2021/10/23 04:26:28;;;;;;;5.05;2.65;;;7.70;86.40;;;;;;5049882;28;20032;-81
2021/10/23 04:28:54;;;;;;;5.00;2.63;;;7.60;86.30;;;;;;5050826;28;20430;-81
2021/10/23 04:31:19;;;;;;;5.30;2.80;;;7.60;86.50;;;;;;5050711;28;20131;-82
2021/10/23 04:33:45;;;;;;;3.33;2.55;;;7.60;86.40;;;;;;5050907;28;20087;-82
2021/10/23 04:36:11;;;;;;;4.93;3.50;;;7.60;86.50;;;;;;5045269;28;20041;-81
2021/10/23 04:38:36;;;;;;;5.50;3.00;;;7.60;86.60;;;;;;5049978;28;20526;-81
2021/10/23 04:41:02;;;;;;;4.82;3.10;;;7.60;86.60;;;;;;5052000;28;20020;-81
2021/10/23 04:43:27;;;;;;;5.28;3.47;;;7.60;86.60;;;;;;5050731;28;20384;-81
2021/10/23 04:45:53;;;;;;;5.13;3.03;;;7.60;86.80;;;;;;5050652;28;20021;-81
2021/10/23 04:48:18;;;;;;;3.65;2.83;;;7.60;86.70;;;;;;5050422;28;20033;-81
2021/10/23 04:50:44;;;;;;;5.22;3.03;;;7.60;86.80;;;;;;5050705;28;20031;-80
2021/10/23 04:53:09;;;;;;;5.93;3.40;;;7.60;86.80;;;;;;5050272;28;20025;-79
2021/10/23 04:55:35;;;;;;;5.22;3.00;;;7.50;86.70;;;;;;5050470;28;20071;-81
2021/10/23 04:58:01;;;;;;;4.65;2.95;;;7.50;86.80;;;;;;5044800;28;20033;-80
2021/10/23 05:00:26;;;;;;;3.15;2.53;;;7.50;86.80;;;;;;5047727;28;20056;-81
2021/10/23 05:02:52;;;;;;;5.78;3.03;;;7.50;86.80;;;;;;5050126;28;20439;-81
2021/10/23 05:05:18;;;;;;;5.03;2.72;;;7.50;86.90;;;;;;5049068;28;20419;-82
2021/10/23 05:07:44;;;;;;;5.10;3.00;;;7.50;86.90;;;;;;5049302;28;20472;-81
2021/10/23 05:10:10;;;;;;;4.82;3.05;;;7.50;86.90;;;;;;5050114;28;20028;-81
2021/10/23 05:12:35;;;;;;;6.22;3.13;;;7.50;86.90;;;;;;5048967;28;20094;-80
2021/10/23 05:15:01;;;;;;;4.85;3.30;;;7.50;86.90;;;;;;5041563;28;20171;-80
2021/10/23 05:17:26;;;;;;;5.20;3.42;;;7.50;86.90;;;;;;5049070;28;20045;-80
2021/10/23 05:19:52;;;;;;;4.00;2.70;;;7.50;87.00;;;;;;5050476;28;20062;-80
2021/10/23 05:22:17;;;;;;;4.93;3.15;;;7.50;87.10;;;;;;5049685;28;20132;-81
2021/10/23 05:24:43;;;;;;;4.10;2.67;;;7.50;87.00;;;;;;5050298;28;20033;-82
2021/10/23 05:27:08;;;;;;;5.65;3.10;;;7.50;87.00;;;;;;5049035;28;20025;-81
2021/10/23 05:29:34;;;;;;;4.22;3.42;;;7.50;87.00;;;;;;5049671;28;20108;-81
2021/10/23 05:31:59;;;;;;;4.32;3.00;;;7.50;87.00;;;;;;5050028;28;20167;-81
2021/10/23 05:34:25;;;;;;;5.28;2.90;;;7.40;87.00;;;;;;5050198;28;20029;-82
2021/10/23 05:36:50;;;;;;;5.68;3.10;;;7.40;87.60;;;;;;5047556;28;20044;-81
2021/10/23 05:39:16;;;;;;;5.88;3.03;;;7.40;87.00;;;;;;5050134;28;20146;-83
2021/10/23 05:41:42;;;;;;;5.53;3.00;;;7.40;87.00;;;;;;5050234;28;20031;-81
2021/10/23 05:44:07;;;;;;;4.03;2.80;;;7.40;87.00;;;;;;5049662;28;20085;-81
2021/10/23 05:46:33;;;;;;;4.95;3.03;;;7.30;87.00;;;;;;5050143;28;20025;-81
2021/10/23 05:48:58;;;;;;;4.15;2.90;;;7.30;87.00;;;;;;5048765;28;20438;-80
2021/10/23 05:51:25;;;;;;;3.05;2.72;;;7.30;86.90;;;;;;5047870;28;20490;-81
2021/10/23 05:53:51;;;;;;;4.00;2.80;;;7.30;86.80;;;;;;5049254;28;20475;-81
2021/10/23 05:56:16;;;;;;;3.45;2.55;;;7.20;86.80;;;;;;5049591;28;20047;-81
2021/10/23 05:58:42;;;;;;;3.90;2.53;;;7.10;86.80;;;;;;5049258;28;20043;-81
2021/10/23 06:01:08;;;;;;;3.85;2.78;;;7.10;86.90;;;;;;5055233;28;20013;-82
2021/10/23 06:03:36;;;;;;;3.50;2.60;;;7.10;87.00;;;;;;5061245;28;20033;-81
2021/10/23 06:06:03;;;;;;;3.88;2.63;;;7.10;86.90;;;;;;5048465;28;20395;-82
2021/10/23 06:08:30;;;;;;;3.15;2.42;;;7.00;86.80;;;;;;5049445;28;20036;-84
2021/10/23 06:10:56;;;;;;;4.70;2.53;;;7.00;86.80;;;;;;5049952;28;20033;-79
2021/10/23 06:13:23;;;;;;;4.22;2.60;;;7.00;86.70;;;;;;5048523;28;20021;-79
2021/10/23 06:15:49;;;;;;;4.22;2.60;;;7.00;86.60;;;;;;5046982;28;20051;-79
2021/10/23 06:18:15;;;;;;;4.18;2.95;;;7.00;86.50;;;;;;5042784;28;20029;-84
2021/10/23 06:20:40;;;;;;;4.25;3.05;;;7.00;86.60;;;;;;5044188;28;20095;-81
2021/10/23 06:23:06;;;;;;;5.72;3.20;;;6.90;86.50;;;;;;5048490;28;20677;-81
2021/10/23 06:25:31;;;;;;;3.45;2.90;;;6.90;86.70;;;;;;5049094;28;20066;-81
2021/10/23 06:27:57;;;;;;;6.22;3.25;;;6.90;86.80;;;;;;5048356;28;20033;-81
2021/10/23 06:30:24;;;;;;;3.60;3.00;;;6.90;86.90;;;;;;5048440;28;20053;-81
2021/10/23 06:32:51;;;;;;;4.00;3.20;;;6.90;86.80;;;;;;5049396;28;20021;-88
2021/10/23 06:35:17;;;;;;;4.50;3.08;;;6.90;86.70;;;;;;5048434;28;20022;-79
2021/10/23 06:37:43;;;;;;;4.57;2.95;;;6.90;86.70;;;;;;5042667;28;20060;-78
2021/10/23 06:40:12;;;;;;;3.97;2.75;;;6.90;86.70;;;;;;5045799;28;20041;-78
2021/10/23 06:42:39;;;;;;;7.78;3.50;;;7.00;86.70;;;;;;5041764;28;20094;-79
2021/10/23 06:45:06;;;;;;;5.70;3.33;;;7.00;86.60;;;;;;5049374;28;20052;-79
2021/10/23 06:47:31;;;;;;;4.10;3.38;;;7.00;86.60;;;;;;5042322;28;20630;-80
2021/10/23 06:49:58;;;;;;;6.50;3.90;;;7.10;86.60;;;;;;5046703;28;20028;-78
2021/10/23 06:52:24;;;;;;;5.38;3.30;;;7.20;86.60;;;;;;5050788;28;20024;-79
2021/10/23 06:54:50;;;;;;;5.03;3.90;;;7.20;86.40;;;;;;5053044;28;20057;-80
2021/10/23 06:57:15;;;;;;;5.05;3.88;;;7.30;86.40;;;;;;5057194;28;20444;-79
2021/10/23 06:59:41;;;;;;;6.13;4.50;;;7.40;86.40;;;;;;5053794;28;20021;-81
2021/10/23 07:02:06;;;;;;;6.82;4.90;;;7.40;86.30;;;;;;5060397;28;20028;-80
2021/10/23 07:04:32;;;;;;;6.10;4.40;;;7.50;86.30;;;;;;5054020;28;20021;-78
2021/10/23 07:06:57;;;;;;;8.35;5.20;;;7.50;86.20;;;;;;5059701;28;20112;-79
2021/10/23 07:09:23;;;;;;;5.80;3.65;;;7.60;86.20;;;;;;5047781;28;20039;-79
2021/10/23 07:11:48;;;;;;;7.30;3.92;;;7.60;86.10;;;;;;5053174;28;20033;-78
2021/10/23 07:14:14;;;;;;;5.15;3.28;;;7.70;86.10;;;;;;5056600;28;20101;-78
2021/10/23 07:16:40;;;;;;;6.75;3.70;;;7.70;86.00;;;;;;5052683;28;20128;-79
2021/10/23 07:19:05;;;;;;;7.57;4.05;;;7.70;86.10;;;;;;5052467;28;20021;-78
2021/10/23 07:21:31;;;;;;;4.38;3.42;;;7.80;86.10;;;;;;5057099;28;20033;-79
2021/10/23 07:23:58;;;;;;;4.57;4.07;;;7.90;86.10;;;;;;5060222;28;20025;-76
2021/10/23 07:26:24;;;;;;;5.28;3.95;;;7.90;86.10;;;;;;5058151;28;20025;-77
2021/10/23 07:28:50;;;;;;;3.40;2.78;;;8.00;86.10;;;;;;5050628;28;20170;-77
2021/10/23 07:31:15;;;;;;;6.53;4.20;;;8.10;86.00;;;;;;5060770;28;20036;-77
2021/10/23 07:33:41;;;;;;;3.42;3.03;;;8.20;85.90;;;;;;5056714;28;20052;-76
2021/10/23 07:36:07;;;;;;;5.10;3.85;;;8.20;85.90;;;;;;5053164;28;20071;-77
2021/10/23 07:38:32;;;;;;;3.72;3.35;;;8.30;86.00;;;;;;5059827;28;20036;-77
2021/10/23 07:40:58;;;;;;;4.53;3.85;;;8.30;85.90;;;;;;5051985;28;20557;-76
2021/10/23 07:43:23;;;;;;;4.57;3.83;;;8.40;86.00;;;;;;5056941;28;20368;-77
2021/10/23 07:45:49;;;;;;;4.03;3.47;;;8.40;85.90;;;;;;5054732;28;20024;-76
2021/10/23 07:48:19;;;;;;;4.18;3.42;;;8.50;85.90;;;;;;5054869;28;20055;-76
2021/10/23 07:50:46;;;;;;;5.63;3.53;;;8.50;85.80;;;;;;5059051;28;20052;-76
2021/10/23 07:53:12;;;;;;;4.15;3.75;;;8.60;85.80;;;;;;5055747;28;20535;-76
2021/10/23 07:55:38;;;;;;;3.75;3.10;;;8.70;85.80;;;;;;5052879;28;20080;-76
2021/10/23 07:58:03;;;;;;;3.65;2.72;;;8.70;85.70;;;;;;5053471;28;20387;-77
2021/10/23 08:00:29;;;;;;;4.32;3.80;;;8.80;85.70;;;;;;5048506;28;20033;-76
2021/10/23 08:03:00;;;;;;;5.50;4.03;;;8.90;85.70;;;;;;5053049;28;20494;-76
2021/10/23 08:05:27;;;;;;;5.47;4.20;;;8.90;86.30;;;;;;5050811;28;20025;-85
2021/10/23 08:07:53;;;;;;;3.28;2.70;;;9.00;85.70;;;;;;5053071;28;20547;-89
2021/10/23 08:10:22;;;;;;;4.75;3.97;;;9.00;85.50;;;;;;5055151;28;20029;-85
2021/10/23 08:12:47;;;;;;;4.20;3.10;;;9.00;85.50;;;;;;5050110;28;20200;-85
2021/10/23 08:15:14;;;;;;;5.60;4.70;;;9.10;85.50;;;;;;5055283;28;20139;-87
2021/10/23 08:17:40;;;;;;;4.53;4.07;;;9.20;85.60;;;;;;5051344;28;20036;-87
2021/10/23 08:20:07;;;;;;;4.68;3.95;;;9.20;85.50;;;;;;5057752;28;20025;-86
2021/10/23 08:22:33;;;;;;;4.32;3.33;;;9.30;85.50;;;;;;5058215;28;20036;-88
2021/10/23 08:25:00;;;;;;;5.07;3.55;;;9.40;85.40;;;;;;5056336;28;20021;-80
2021/10/23 08:27:26;;;;;;;3.92;2.92;;;9.40;85.20;;;;;;5046151;28;20463;-75
2021/10/23 08:29:51;;;;;;;5.70;4.22;;;9.50;85.20;;;;;;5058627;28;20021;-76
2021/10/23 08:32:17;;;;;;;6.15;4.53;;;9.50;85.10;;;;;;5053336;28;20673;-75
2021/10/23 08:34:43;;;;;;;4.07;3.63;;;9.50;85.20;;;;;;5058578;28;20024;-75
2021/10/23 08:37:10;;;;;;;4.72;3.30;;;9.50;85.30;;;;;;5047802;28;20033;-75
2021/10/23 08:39:36;;;;;;;4.50;3.50;;;9.60;85.30;;;;;;5049798;28;20029;-76
2021/10/23 08:42:02;;;;;;;5.70;4.40;;;9.70;85.30;;;;;;5052879;28;20047;-76
2021/10/23 08:44:28;;;;;;;5.03;4.10;;;9.70;85.20;;;;;;5056941;28;20051;-75
2021/10/23 08:46:55;;;;;;;5.22;4.55;;;9.80;85.20;;;;;;5053540;28;20029;-76
2021/10/23 08:49:20;;;;;;;6.28;5.00;;;9.80;85.30;;;;;;5047212;28;20024;-78
2021/10/23 08:51:46;;;;;;;4.28;3.75;;;9.80;85.20;;;;;;5059056;28;20029;-78
2021/10/23 08:54:14;;;;;;;6.07;4.88;;;9.80;85.20;;;;;;5052635;28;20103;-78
2021/10/23 08:56:39;;;;;;;7.00;5.00;;;9.80;85.20;;;;;;5054951;28;20029;-79
2021/10/23 08:59:05;;;;;;;5.43;4.45;;;9.90;85.40;;;;;;5048735;28;20131;-78
2021/10/23 09:01:30;;;;;;;4.38;3.72;;;9.90;85.40;;;;;;5052999;28;20036;-78
2021/10/23 09:03:56;;;;;;;7.38;5.72;;;10.00;85.40;;;;;;5054925;28;20021;-77
2021/10/23 09:06:34;;;;;;;8.80;6.00;;;9.90;85.30;;;;;;5048668;28;20017;-77
2021/10/23 09:09:09;;;;;;;7.68;6.20;;;9.90;85.40;;;;;;5048964;28;20029;-80
2021/10/23 09:11:39;;;;;;;6.95;4.85;;;9.90;85.40;;;;;;5040384;28;20025;-78
2021/10/23 09:14:22;;;;;;;6.90;5.40;;;10.00;86.10;;;;;;5050986;28;20048;-77
2021/10/23 09:17:09;;;;;;;5.97;5.10;;;10.00;85.50;;;;;;5055421;28;20574;-76
2021/10/23 09:19:44;;;;;;;10.85;8.13;;;10.00;85.50;;;;;;5042999;28;20120;-76
2021/10/23 09:22:26;;;;;;;8.80;6.95;;;9.90;85.50;;;;;;5051084;28;20040;-76
2021/10/23 09:25:08;;;;;;;8.15;6.05;;;9.80;85.70;;;;;;5056013;28;20017;-76
2021/10/23 09:27:33;;;;;;;8.13;6.22;;;9.90;85.80;;;;;;5052537;28;20028;-76
2021/10/23 09:29:59;;;;;;;5.53;4.28;;;9.90;85.80;;;;;;5056795;28;20021;-76
2021/10/23 09:32:32;;;;;;;8.23;6.68;;;10.00;85.80;;;;;;5052849;28;20020;-76
2021/10/23 09:35:18;;;;;;;7.43;6.25;;;10.00;85.80;;;;;;5045562;28;20449;-76
2021/10/23 09:37:45;;;;;;;10.18;7.05;;;10.00;85.90;;;;;;5049095;28;20135;-76
2021/10/23 09:40:19;;;;;;;8.55;6.43;;;10.10;85.90;;;;;;5052891;28;20061;-77
2021/10/23 09:42:45;;;;;;;7.88;6.60;;;10.20;85.90;;;;;;5044540;28;20025;-76
2021/10/23 09:45:11;;;;;;;7.82;5.60;;;10.20;85.80;;;;;;5050522;28;20483;-77
2021/10/23 09:47:39;;;;;;;6.72;5.40;;;10.30;85.70;;;;;;5044683;28;20025;-77
2021/10/23 09:50:21;;;;;;;12.63;9.25;;;10.40;85.70;;;;;;5055047;28;20040;-76
2021/10/23 09:53:08;;;;;;;6.75;5.40;;;10.40;85.60;;;;;;5047790;28;20021;-76
2021/10/23 09:55:47;;;;;;;7.75;5.93;;;10.50;85.60;;;;;;5042444;28;20538;-76
2021/10/23 09:58:17;;;;;;;6.72;5.82;;;10.60;85.60;;;;;;5047463;28;20042;-75
2021/10/23 10:00:44;;;;;;;8.40;6.40;;;10.60;85.50;;;;;;5054280;28;20132;-75
2021/10/23 10:03:10;;;;;;;9.63;7.43;;;10.70;85.40;;;;;;5050832;28;20071;-75
2021/10/23 10:05:36;;;;;;;8.32;5.43;;;10.70;85.50;;;;;;5041202;28;20029;-76
2021/10/23 10:08:06;;;;;;;9.65;7.40;;;10.80;85.40;;;;;;5054310;28;20041;-75
2021/10/23 10:10:35;;;;;;;8.25;6.93;;;10.90;85.50;;;;;;5061943;28;20020;-77
2021/10/23 10:13:01;;;;;;;11.48;8.38;;;10.90;85.30;;;;;;5053496;28;20029;-74
2021/10/23 10:15:29;;;;;;;9.63;6.82;;;11.00;85.30;;;;;;5051429;28;20512;-75
2021/10/23 10:17:55;;;;;;;13.15;9.38;;;11.10;85.40;;;;;;5046341;28;20045;-75
2021/10/23 10:20:21;;;;;;;8.65;6.78;;;11.10;85.30;;;;;;5054800;28;20039;-75
2021/10/23 10:22:54;;;;;;;10.27;8.13;;;11.10;85.40;;;;;;5054509;28;20074;-75
2021/10/23 10:25:20;;;;;;;;;;;11.20;85.40;;;;;;5061458;28;20017;-75
2021/10/23 10:27:46;;;;;;;11.70;7.90;;;11.30;85.30;;;;;;5052504;28;19913;-75
2021/10/23 10:30:34;;;;;;;9.52;6.70;;;11.40;85.20;;;;;;5055479;28;20025;-76
2021/10/23 10:33:21;;;;;;;7.35;6.05;;;11.40;85.20;;;;;;5051189;28;20032;-83
2021/10/23 10:44:14;;;;;;;10.25;7.25;;;11.40;86.00;;;;;;5046778;28;20060;-76
2021/10/23 10:47:06;;;;;;;9.55;7.57;;;11.60;85.40;;;;;;5048339;28;20496;-76
2021/10/23 10:49:50;;;;;;;8.13;6.80;;;11.70;85.30;;;;;;5050186;28;20078;-75
2021/10/23 10:52:40;;;;;;;7.28;5.85;;;11.70;85.10;;;;;;5056491;28;20046;-76
2021/10/23 10:55:14;;;;;;;5.78;5.10;;;11.90;85.10;;;;;;5048965;28;20029;-75
2021/10/23 10:58:01;;;;;;;11.20;8.18;;;12.10;85.00;;;;;;5046923;28;20037;-76
2021/10/23 11:00:52;;;;;;;11.05;7.18;;;12.20;84.60;;;;;;5051848;28;20452;-75
2021/10/23 11:03:43;;;;;;;11.70;9.15;;;12.30;84.30;;;;;;5053683;28;20033;-75
2021/10/23 11:06:30;;;;;;;8.35;6.38;;;12.30;84.10;;;;;;5047160;28;20025;-75
2021/10/23 11:11:46;;;;;;;7.03;5.63;;;12.50;83.80;;;;;;5055286;28;20041;-75
2021/10/23 11:14:24;;;;;;;5.78;4.85;;;12.60;83.70;;;;;;5054496;28;20124;-75
2021/10/23 11:16:57;;;;;;;12.18;9.15;;;12.70;83.60;;;;;;5063854;28;20115;-75
2021/10/23 11:19:24;;;;;;;11.63;9.32;;;12.70;83.30;;;;;;5055132;28;20028;-75
2021/10/23 11:22:11;;;;;;;10.75;8.55;;;12.70;83.40;;;;;;5059151;28;20024;-75
2021/10/23 11:25:03;;;;;;;7.38;5.90;;;12.70;83.30;;;;;;5048602;28;20031;-75
2021/10/23 11:27:44;;;;;;;8.05;5.43;;;12.70;83.30;;;;;;5073235;28;20487;-75
2021/10/23 11:30:20;;;;;;;11.20;8.10;;;12.80;83.30;;;;;;5049577;28;20025;-75
2021/10/23 11:33:05;;;;;;;9.23;7.30;;;12.80;83.10;;;;;;5054263;28;20083;-75
2021/10/23 11:35:38;;;;;;;8.23;5.85;;;12.80;82.90;;;;;;5053361;28;20036;-75
2021/10/23 11:38:19;;;;;;;8.57;6.00;;;12.90;82.90;;;;;;5053543;28;20391;-75
2021/10/23 11:40:46;;;;;;;7.45;5.38;;;12.90;82.90;;;;;;5043835;28;20503;-75
2021/10/23 11:43:18;;;;;;;10.45;6.47;;;13.00;82.80;;;;;;5052650;28;20048;-75
2021/10/23 11:45:44;;;;;;;9.50;7.78;;;13.00;82.70;;;;;;5053284;28;20536;-75
2021/10/23 11:48:10;;;;;;;9.68;6.82;;;13.10;82.50;;;;;;5058406;28;20017;-75
2021/10/23 11:50:41;;;;;;;8.90;6.47;;;13.10;82.50;;;;;;5051602;28;20040;-75
2021/10/23 11:53:24;;;;;;;12.63;8.23;;;13.10;82.50;;;;;;5050483;28;20400;-76
2021/10/23 11:55:52;;;;;;;10.75;7.55;;;13.10;82.10;;;;;;5052617;28;20079;-76
2021/10/23 11:58:20;;;;;;;12.27;8.32;;;13.10;82.20;;;;;;5052515;28;20074;-76
2021/10/23 12:01:07;;;;;;;9.25;6.32;;;13.00;81.60;;;;;;5053415;28;20040;-76
2021/10/23 12:03:35;;;;;;;10.57;6.93;;;13.00;81.90;;;;;;5051876;28;20075;-76
2021/10/23 12:06:15;;;;;;;7.60;5.57;;;13.10;81.80;;;;;;5058921;28;20025;-76
2021/10/23 12:08:41;;;;;;;12.52;7.68;;;13.20;81.70;;;;;;5058308;28;20028;-75
2021/10/23 12:11:19;;;;;;;9.85;7.35;;;13.10;81.30;;;;;;5060419;28;20024;-75
2021/10/23 12:14:08;;;;;;;12.48;8.63;;;13.10;80.80;;;;;;5052629;28;20028;-75
2021/10/23 12:16:55;;;;;;;8.77;5.93;;;13.00;80.20;;;;;;5046116;28;20532;-76
2021/10/23 12:19:31;;;;;;;12.52;8.73;;;13.10;80.50;;;;;;5052994;28;20033;-75
2021/10/23 12:22:15;;;;;;;10.25;7.38;;;13.00;80.10;;;;;;5049043;28;20032;-75
2021/10/23 12:24:46;;;;;;;14.23;9.02;;;13.00;80.00;;;;;;5049171;28;20040;-75
2021/10/23 12:27:29;;;;;;;9.18;5.97;;;13.00;79.90;;;;;;5044552;28;20032;-75
2021/10/23 12:30:00;;;;;;;6.63;4.78;;;13.00;80.10;;;;;;5050020;28;20083;-75
2021/10/23 12:32:25;;;;;;;7.95;5.22;;;13.10;80.20;;;;;;5047426;28;20074;-75
2021/10/23 12:34:51;;;;;;;10.10;6.43;;;13.20;80.20;;;;;;5047002;28;20446;-75
2021/10/23 12:37:26;;;;;;;11.75;7.28;;;13.20;80.20;;;;;;5045697;28;20044;-74
2021/10/23 12:40:29;;;;;;;10.13;6.53;;;13.20;80.20;;;;;;5047102;28;20495;-74
2021/10/23 12:43:05;;;;;;;12.80;7.45;;;13.30;80.30;;;;;;5045697;28;20029;-73
2021/10/23 12:45:35;;;;;;;11.00;7.32;;;13.20;80.00;;;;;;5040641;28;20109;-74
2021/10/23 12:48:06;;;;;;;9.18;6.65;;;13.20;80.20;;;;;;5046616;28;20028;-73
2021/10/23 12:50:32;;;;;;;9.10;7.03;;;13.20;80.30;;;;;;5043422;28;20031;-73
2021/10/23 12:52:58;;;;;;;9.13;6.90;;;13.30;80.40;;;;;;5043381;28;20053;-73
2021/10/23 12:55:25;;;;;;;9.48;6.90;;;13.30;80.30;;;;;;5044326;28;20060;-73
2021/10/23 12:57:50;;;;;;;8.25;5.93;;;13.40;80.40;;;;;;5042091;28;20606;-73
2021/10/23 13:00:16;;;;;;;6.15;4.47;;;13.40;80.30;;;;;;5047154;28;20040;-74
2021/10/23 13:02:43;;;;;;;10.98;8.35;;;13.50;80.30;;;;;;5043048;28;20031;-73
2021/10/23 13:05:09;;;;;;;13.82;8.93;;;13.50;80.20;;;;;;5043565;28;20057;-73
2021/10/23 13:07:34;;;;;;;11.45;8.45;;;13.50;80.10;;;;;;5041843;28;20029;-74
2021/10/23 13:10:00;;;;;;;13.68;8.00;;;13.40;80.10;;;;;;5047456;28;20036;-74